Banquete, Texas
Current Conditions -  °F | °C
As of 8:35 AM on Monday 22 Dec 2014 (Local Time) from KRBO Reporting Station
Moderate Fog Moderate Fog  
Wind Chill: 60°   Ceiling: 100
Heat Index: 60°   Visibility: 0.5mi
Dew Point: 60°   Wind: 6mph
Humidity: 99%   Direction: 230°SW
Pressure: 29.8"   Gusts: NA
Location:  27.81°N, 97.8°W
Report Text: KRBO 221435Z AUTO 23005KT 1/2SM FG OVC001 16/16 A2980 RMK AO2 T01580156
Loading
Personal Weather Stations






























Interactive Weather Map New forecast layout! Learn more

10-Day Weather Forecast

Advertisements
Track Severe Weather on mobile